PWSweather.com
Personal Weather Stations
Station Observations
LOBIOS
Galicia, LobiosES

GaliciaLobiosES

Lat: 41.895, Lon: -8.091667

Elevation: 1597

Station Type: Automática/Davis Vantage Pro2 Plus

www.meteolobios.es

High Low Average
Temperature 46.1°F7.8°C 34.4°F1.3°C 39.6°F4.2°C
Dew Point 42.2°F5.7°C 32.3°F0.2°C 37.3°F2.9°C
Winds 5.8 mph 9.3 kmh Calm Calm 1.0 mph ENE1.6 kmh ENE
Wind Gusts 6.9 mph11.1 kmh -- 2.0 mph3.2 kmh
Humidity 96% 77% 92%
Pressure 30.35 in1027.8 mb 30.13 in1020.3 mb -
Precipitation 0.01 in0.3 mm - -
Hour Temp Dew Point Humidity Winds Wind Gusts Pressure Precip Precip Rate Daily Precip Total
12:00 AM 38.7°F3.7°C 37.4°F3.0°C 95% 1.1 mph WSW1.8 kmh WSW 2.3 mph3.7 kmh 30.14 in1020.7 mb - 0.00 in0.0 mm 0.00 in0.0 mm
12:10 AM 38.7°F3.7°C 37.4°F3.0°C 95% Calm Calm 1.1 mph1.8 kmh 30.15 in1021.0 mb - 0.00 in0.0 mm 0.00 in0.0 mm
12:20 AM 38.7°F3.7°C 37.4°F3.0°C 95% 2.3 mph WSW3.7 kmh WSW 2.3 mph3.7 kmh 30.15 in1021.0 mb - 0.00 in0.0 mm 0.00 in0.0 mm
12:30 AM 38.7°F3.7°C 37.4°F3.0°C 95% 1.1 mph WSW1.8 kmh WSW 1.1 mph1.8 kmh 30.15 in1021.0 mb - 0.00 in0.0 mm 0.00 in0.0 mm
12:40 AM 38.7°F3.7°C 37.4°F3.0°C 95% Calm Calm -- 30.15 in1021.0 mb - 0.00 in0.0 mm 0.00 in0.0 mm
12:50 AM 38.8°F3.8°C 37.5°F3.1°C 95% Calm Calm -- 30.15 in1021.0 mb - 0.00 in0.0 mm 0.00 in0.0 mm
01:00 AM 38.8°F3.8°C 37.5°F3.1°C 95% Calm Calm -- 30.15 in1021.0 mb - 0.00 in0.0 mm 0.00 in0.0 mm
01:10 AM 38.9°F3.8°C 37.9°F3.3°C 96% Calm Calm -- 30.14 in1020.7 mb - 0.01 in0.3 mm 0.01 in0.3 mm
01:20 AM 39.1°F3.9°C 38.1°F3.4°C 96% Calm Calm -- 30.14 in1020.7 mb - 0.00 in0.0 mm 0.01 in0.3 mm
01:30 AM 39.1°F3.9°C 37.8°F3.2°C 95% Calm Calm 2.3 mph3.7 kmh 30.14 in1020.7 mb - 0.00 in0.0 mm 0.01 in0.3 mm
01:40 AM 39.2°F4.0°C 37.9°F3.3°C 95% Calm Calm -- 30.14 in1020.7 mb - 0.00 in0.0 mm 0.01 in0.3 mm
01:50 AM 39.2°F4.0°C 37.9°F3.3°C 95% Calm Calm 1.1 mph1.8 kmh 30.14 in1020.7 mb - 0.00 in0.0 mm 0.01 in0.3 mm
02:00 AM 39.4°F4.1°C 38.0°F3.3°C 95% Calm Calm -- 30.14 in1020.7 mb - 0.00 in0.0 mm 0.01 in0.3 mm
02:10 AM 39.4°F4.1°C 38.4°F3.6°C 96% Calm Calm -- 30.13 in1020.3 mb - 0.00 in0.0 mm 0.01 in0.3 mm
02:20 AM 39.4°F4.1°C 38.1°F3.4°C 95% Calm Calm -- 30.13 in1020.3 mb - 0.00 in0.0 mm 0.01 in0.3 mm
02:30 AM 39.3°F4.1°C 38.0°F3.3°C 95% 1.1 mph WSW1.8 kmh WSW 3.5 mph5.6 kmh 30.13 in1020.3 mb - 0.00 in0.0 mm 0.01 in0.3 mm
02:40 AM 39.0°F3.9°C 37.7°F3.2°C 95% Calm Calm -- 30.13 in1020.3 mb - 0.00 in0.0 mm 0.01 in0.3 mm
02:50 AM 38.9°F3.8°C 37.9°F3.3°C 96% Calm Calm -- 30.13 in1020.3 mb - 0.00 in0.0 mm 0.01 in0.3 mm
03:00 AM 38.9°F3.8°C 37.9°F3.3°C 96% 1.1 mph E1.8 kmh E 2.3 mph3.7 kmh 30.13 in1020.3 mb - 0.00 in0.0 mm 0.01 in0.3 mm
03:10 AM 38.9°F3.8°C 37.8°F3.2°C 96% Calm Calm -- 30.14 in1020.7 mb - 0.00 in0.0 mm 0.01 in0.3 mm
03:20 AM 38.8°F3.8°C 37.8°F3.2°C 96% Calm Calm -- 30.14 in1020.7 mb - 0.00 in0.0 mm 0.01 in0.3 mm
03:30 AM 38.8°F3.8°C 37.8°F3.2°C 96% Calm Calm -- 30.14 in1020.7 mb - 0.00 in0.0 mm 0.01 in0.3 mm
03:40 AM 38.8°F3.8°C 37.8°F3.2°C 96% Calm Calm -- 30.14 in1020.7 mb - 0.00 in0.0 mm 0.01 in0.3 mm
03:50 AM 38.7°F3.7°C 37.7°F3.2°C 96% 2.3 mph E3.7 kmh E 3.5 mph5.6 kmh 30.15 in1021.0 mb - 0.00 in0.0 mm 0.01 in0.3 mm
04:00 AM 38.6°F3.7°C 37.6°F3.1°C 96% Calm Calm 2.3 mph3.7 kmh 30.15 in1021.0 mb - 0.00 in0.0 mm 0.01 in0.3 mm
04:10 AM 38.4°F3.6°C 37.4°F3.0°C 96% 3.5 mph E5.6 kmh E 4.6 mph7.4 kmh 30.15 in1021.0 mb - 0.00 in0.0 mm 0.01 in0.3 mm
04:20 AM 38.3°F3.5°C 37.0°F2.8°C 95% 2.3 mph E3.7 kmh E 2.3 mph3.7 kmh 30.15 in1021.0 mb - 0.00 in0.0 mm 0.01 in0.3 mm
04:30 AM 38.1°F3.4°C 37.1°F2.8°C 96% Calm Calm -- 30.15 in1021.0 mb - 0.00 in0.0 mm 0.01 in0.3 mm
04:40 AM 37.8°F3.2°C 36.8°F2.7°C 96% 2.3 mph E3.7 kmh E 3.5 mph5.6 kmh 30.14 in1020.7 mb - 0.00 in0.0 mm 0.01 in0.3 mm
04:50 AM 37.7°F3.2°C 36.3°F2.4°C 95% 1.1 mph N1.8 kmh N 1.1 mph1.8 kmh 30.15 in1021.0 mb - 0.00 in0.0 mm 0.01 in0.3 mm
05:00 AM 37.6°F3.1°C 36.6°F2.6°C 96% Calm Calm 1.1 mph1.8 kmh 30.15 in1021.0 mb - 0.00 in0.0 mm 0.01 in0.3 mm
05:10 AM 37.6°F3.1°C 36.6°F2.6°C 96% Calm Calm -- 30.16 in1021.3 mb - 0.00 in0.0 mm 0.01 in0.3 mm
05:20 AM 37.6°F3.1°C 36.6°F2.6°C 96% Calm Calm -- 30.16 in1021.3 mb - 0.00 in0.0 mm 0.01 in0.3 mm
05:30 AM 37.7°F3.2°C 36.7°F2.6°C 96% Calm Calm 1.1 mph1.8 kmh 30.15 in1021.0 mb - 0.00 in0.0 mm 0.01 in0.3 mm
05:40 AM 37.9°F3.3°C 36.9°F2.7°C 96% Calm Calm -- 30.15 in1021.0 mb - 0.00 in0.0 mm 0.01 in0.3 mm
05:50 AM 38.0°F3.3°C 37.0°F2.8°C 96% Calm Calm 1.1 mph1.8 kmh 30.15 in1021.0 mb - 0.00 in0.0 mm 0.01 in0.3 mm
06:00 AM 38.1°F3.4°C 37.1°F2.8°C 96% 1.1 mph N1.8 kmh N 2.3 mph3.7 kmh 30.15 in1021.0 mb - 0.00 in0.0 mm 0.01 in0.3 mm
06:10 AM 38.1°F3.4°C 37.0°F2.8°C 96% Calm Calm -- 30.15 in1021.0 mb - 0.00 in0.0 mm 0.01 in0.3 mm
06:20 AM 38.0°F3.3°C 37.0°F2.8°C 96% Calm Calm -- 30.15 in1021.0 mb - 0.00 in0.0 mm 0.01 in0.3 mm
06:30 AM 37.9°F3.3°C 36.9°F2.7°C 96% Calm Calm -- 30.15 in1021.0 mb - 0.00 in0.0 mm 0.01 in0.3 mm
06:40 AM 37.9°F3.3°C 36.9°F2.7°C 96% 1.1 mph N1.8 kmh N 2.3 mph3.7 kmh 30.16 in1021.3 mb - 0.00 in0.0 mm 0.01 in0.3 mm
06:50 AM 38.0°F3.3°C 36.9°F2.7°C 96% Calm Calm -- 30.16 in1021.3 mb - 0.00 in0.0 mm 0.01 in0.3 mm
07:00 AM 38.0°F3.3°C 37.0°F2.8°C 96% 1.1 mph N1.8 kmh N 3.5 mph5.6 kmh 30.15 in1021.0 mb - 0.00 in0.0 mm 0.01 in0.3 mm
07:10 AM 38.0°F3.3°C 37.0°F2.8°C 96% 1.1 mph N1.8 kmh N 2.3 mph3.7 kmh 30.15 in1021.0 mb - 0.00 in0.0 mm 0.01 in0.3 mm
07:20 AM 37.9°F3.3°C 36.9°F2.7°C 96% 1.1 mph N1.8 kmh N 3.5 mph5.6 kmh 30.15 in1021.0 mb - 0.00 in0.0 mm 0.01 in0.3 mm
07:30 AM 37.9°F3.3°C 36.9°F2.7°C 96% Calm Calm -- 30.15 in1021.0 mb - 0.00 in0.0 mm 0.01 in0.3 mm
07:40 AM 37.8°F3.2°C 36.8°F2.7°C 96% Calm Calm -- 30.16 in1021.3 mb - 0.00 in0.0 mm 0.01 in0.3 mm
07:50 AM 37.8°F3.2°C 36.8°F2.7°C 96% Calm Calm -- 30.16 in1021.3 mb - 0.00 in0.0 mm 0.01 in0.3 mm
08:00 AM 37.9°F3.3°C 36.9°F2.7°C 96% Calm Calm -- 30.16 in1021.3 mb - 0.00 in0.0 mm 0.01 in0.3 mm
08:10 AM 37.9°F3.3°C 36.9°F2.7°C 96% 1.1 mph N1.8 kmh N 4.6 mph7.4 kmh 30.16 in1021.3 mb - 0.00 in0.0 mm 0.01 in0.3 mm
08:20 AM 37.9°F3.3°C 36.8°F2.7°C 96% Calm Calm -- 30.16 in1021.3 mb - 0.00 in0.0 mm 0.01 in0.3 mm
08:30 AM 37.8°F3.2°C 36.8°F2.7°C 96% Calm Calm -- 30.17 in1021.7 mb - 0.00 in0.0 mm 0.01 in0.3 mm
08:40 AM 37.7°F3.2°C 36.7°F2.6°C 96% Calm Calm -- 30.17 in1021.7 mb - 0.00 in0.0 mm 0.01 in0.3 mm
08:50 AM 37.7°F3.2°C 36.7°F2.6°C 96% Calm Calm -- 30.18 in1022.0 mb - 0.00 in0.0 mm 0.01 in0.3 mm
09:00 AM 37.6°F3.1°C 36.6°F2.6°C 96% Calm Calm -- 30.18 in1022.0 mb - 0.00 in0.0 mm 0.01 in0.3 mm
09:10 AM 37.5°F3.1°C 36.5°F2.5°C 96% Calm Calm -- 30.18 in1022.0 mb - 0.00 in0.0 mm 0.01 in0.3 mm
09:20 AM 37.5°F3.1°C 36.5°F2.5°C 96% Calm Calm 2.3 mph3.7 kmh 30.18 in1022.0 mb - 0.00 in0.0 mm 0.01 in0.3 mm
09:30 AM 37.5°F3.1°C 36.5°F2.5°C 96% 1.1 mph N1.8 kmh N 2.3 mph3.7 kmh 30.19 in1022.4 mb - 0.00 in0.0 mm 0.01 in0.3 mm
09:40 AM 37.5°F3.1°C 36.4°F2.4°C 96% Calm Calm -- 30.18 in1022.0 mb - 0.00 in0.0 mm 0.01 in0.3 mm
09:50 AM 37.5°F3.1°C 36.4°F2.4°C 96% Calm Calm 1.1 mph1.8 kmh 30.19 in1022.4 mb - 0.00 in0.0 mm 0.01 in0.3 mm
10:00 AM 37.5°F3.1°C 36.5°F2.5°C 96% Calm Calm -- 30.19 in1022.4 mb - 0.00 in0.0 mm 0.01 in0.3 mm
10:10 AM 37.6°F3.1°C 36.5°F2.5°C 96% Calm Calm 1.1 mph1.8 kmh 30.19 in1022.4 mb - 0.00 in0.0 mm 0.01 in0.3 mm
10:20 AM 37.7°F3.2°C 36.7°F2.6°C 96% 2.3 mph N3.7 kmh N 3.5 mph5.6 kmh 30.19 in1022.4 mb - 0.00 in0.0 mm 0.01 in0.3 mm
10:30 AM 37.8°F3.2°C 36.8°F2.7°C 96% 1.1 mph N1.8 kmh N 2.3 mph3.7 kmh 30.19 in1022.4 mb - 0.00 in0.0 mm 0.01 in0.3 mm
10:40 AM 37.9°F3.3°C 36.9°F2.7°C 96% 2.3 mph N3.7 kmh N 3.5 mph5.6 kmh 30.20 in1022.7 mb - 0.00 in0.0 mm 0.01 in0.3 mm
10:50 AM 37.9°F3.3°C 36.8°F2.7°C 96% 1.1 mph N1.8 kmh N 2.3 mph3.7 kmh 30.20 in1022.7 mb - 0.00 in0.0 mm 0.01 in0.3 mm
11:00 AM 37.8°F3.2°C 36.7°F2.6°C 96% 1.1 mph N1.8 kmh N 3.5 mph5.6 kmh 30.20 in1022.7 mb - 0.00 in0.0 mm 0.01 in0.3 mm
11:10 AM 37.7°F3.2°C 36.7°F2.6°C 96% Calm Calm -- 30.21 in1023.0 mb - 0.00 in0.0 mm 0.01 in0.3 mm
11:20 AM 37.8°F3.2°C 36.8°F2.7°C 96% 1.1 mph N1.8 kmh N 1.1 mph1.8 kmh 30.21 in1023.0 mb - 0.00 in0.0 mm 0.01 in0.3 mm
11:30 AM 38.1°F3.4°C 37.1°F2.8°C 96% Calm Calm 2.3 mph3.7 kmh 30.21 in1023.0 mb - 0.00 in0.0 mm 0.01 in0.3 mm
11:40 AM 38.2°F3.4°C 37.2°F2.9°C 96% Calm Calm 2.3 mph3.7 kmh 30.21 in1023.0 mb - 0.00 in0.0 mm 0.01 in0.3 mm
11:50 AM 38.2°F3.4°C 37.2°F2.9°C 96% Calm Calm -- 30.21 in1023.0 mb - 0.00 in0.0 mm 0.01 in0.3 mm
12:00 PM 38.3°F3.5°C 37.3°F2.9°C 96% 1.1 mph N1.8 kmh N 2.3 mph3.7 kmh 30.21 in1023.0 mb - 0.00 in0.0 mm 0.01 in0.3 mm
12:10 PM 38.3°F3.5°C 37.3°F2.9°C 96% Calm Calm 1.1 mph1.8 kmh 30.21 in1023.0 mb - 0.00 in0.0 mm 0.01 in0.3 mm
12:20 PM 38.3°F3.5°C 37.3°F2.9°C 96% Calm Calm -- 30.21 in1023.0 mb - 0.00 in0.0 mm 0.01 in0.3 mm
12:30 PM 38.4°F3.6°C 37.4°F3.0°C 96% Calm Calm -- 30.21 in1023.0 mb - 0.00 in0.0 mm 0.01 in0.3 mm
12:40 PM 39.2°F4.0°C 38.2°F3.4°C 96% Calm Calm -- 30.21 in1023.0 mb - 0.00 in0.0 mm 0.01 in0.3 mm
12:50 PM 39.5°F4.2°C 38.5°F3.6°C 96% 2.3 mph N3.7 kmh N 2.3 mph3.7 kmh 30.21 in1023.0 mb - 0.00 in0.0 mm 0.01 in0.3 mm
01:00 PM 39.7°F4.3°C 38.7°F3.7°C 96% 3.5 mph WSW5.6 kmh WSW 4.6 mph7.4 kmh 30.21 in1023.0 mb - 0.00 in0.0 mm 0.01 in0.3 mm
01:10 PM 40.5°F4.7°C 39.4°F4.1°C 96% 2.3 mph SW3.7 kmh SW 3.5 mph5.6 kmh 30.21 in1023.0 mb - 0.00 in0.0 mm 0.01 in0.3 mm
01:20 PM 41.0°F5.0°C 39.9°F4.4°C 96% 4.6 mph SW7.4 kmh SW 5.8 mph9.3 kmh 30.20 in1022.7 mb - 0.00 in0.0 mm 0.01 in0.3 mm
01:30 PM 41.4°F5.2°C 40.3°F4.6°C 96% 3.5 mph SW5.6 kmh SW 6.9 mph11.1 kmh 30.20 in1022.7 mb - 0.00 in0.0 mm 0.01 in0.3 mm
01:40 PM 41.8°F5.4°C 40.8°F4.9°C 96% 4.6 mph SW7.4 kmh SW 4.6 mph7.4 kmh 30.20 in1022.7 mb - 0.00 in0.0 mm 0.01 in0.3 mm
01:50 PM 41.8°F5.4°C 40.7°F4.8°C 96% 1.1 mph SW1.8 kmh SW 4.6 mph7.4 kmh 30.19 in1022.4 mb - 0.00 in0.0 mm 0.01 in0.3 mm
02:00 PM 42.3°F5.7°C 41.2°F5.1°C 96% Calm Calm -- 30.19 in1022.4 mb - 0.00 in0.0 mm 0.01 in0.3 mm
02:10 PM 42.1°F5.6°C 41.1°F5.1°C 96% 2.3 mph N3.7 kmh N 3.5 mph5.6 kmh 30.19 in1022.4 mb - 0.00 in0.0 mm 0.01 in0.3 mm
02:20 PM 42.1°F5.6°C 41.0°F5.0°C 96% 3.5 mph N5.6 kmh N 4.6 mph7.4 kmh 30.19 in1022.4 mb - 0.00 in0.0 mm 0.01 in0.3 mm
02:30 PM 42.5°F5.8°C 41.1°F5.1°C 95% 2.3 mph N3.7 kmh N 3.5 mph5.6 kmh 30.18 in1022.0 mb - 0.00 in0.0 mm 0.01 in0.3 mm
02:40 PM 43.4°F6.3°C 41.8°F5.4°C 94% Calm Calm 1.1 mph1.8 kmh 30.18 in1022.0 mb - 0.00 in0.0 mm 0.01 in0.3 mm
02:50 PM 44.2°F6.8°C 41.8°F5.4°C 91% Calm Calm -- 30.18 in1022.0 mb - 0.00 in0.0 mm 0.01 in0.3 mm
03:00 PM 45.2°F7.3°C 42.2°F5.7°C 89% 2.3 mph NE3.7 kmh NE 3.5 mph5.6 kmh 30.18 in1022.0 mb - 0.00 in0.0 mm 0.01 in0.3 mm
03:10 PM 45.8°F7.7°C 41.5°F5.3°C 85% Calm Calm -- 30.18 in1022.0 mb - 0.00 in0.0 mm 0.01 in0.3 mm
03:20 PM 46.0°F7.8°C 41.5°F5.3°C 84% Calm Calm -- 30.18 in1022.0 mb - 0.00 in0.0 mm 0.01 in0.3 mm
03:30 PM 46.1°F7.8°C 41.2°F5.1°C 83% 1.1 mph NE1.8 kmh NE 3.5 mph5.6 kmh 30.18 in1022.0 mb - 0.00 in0.0 mm 0.01 in0.3 mm
03:40 PM 45.9°F7.7°C 40.7°F4.8°C 82% Calm Calm -- 30.18 in1022.0 mb - 0.00 in0.0 mm 0.01 in0.3 mm
03:50 PM 45.8°F7.7°C 40.3°F4.6°C 81% Calm Calm -- 30.18 in1022.0 mb - 0.00 in0.0 mm 0.01 in0.3 mm
04:00 PM 46.0°F7.8°C 39.5°F4.2°C 78% Calm Calm 1.1 mph1.8 kmh 30.18 in1022.0 mb - 0.00 in0.0 mm 0.01 in0.3 mm
04:10 PM 45.9°F7.7°C 39.4°F4.1°C 78% Calm Calm -- 30.18 in1022.0 mb - 0.00 in0.0 mm 0.01 in0.3 mm
04:20 PM 46.1°F7.8°C 39.6°F4.2°C 78% Calm Calm -- 30.17 in1021.7 mb - 0.00 in0.0 mm 0.01 in0.3 mm
04:30 PM 46.1°F7.8°C 39.6°F4.2°C 78% Calm Calm -- 30.18 in1022.0 mb - 0.00 in0.0 mm 0.01 in0.3 mm
04:40 PM 45.9°F7.7°C 39.8°F4.3°C 79% Calm Calm -- 30.18 in1022.0 mb - 0.00 in0.0 mm 0.01 in0.3 mm
04:50 PM 45.6°F7.6°C 39.5°F4.2°C 79% Calm Calm 1.1 mph1.8 kmh 30.18 in1022.0 mb - 0.00 in0.0 mm 0.01 in0.3 mm
05:00 PM 45.4°F7.4°C 39.3°F4.1°C 79% Calm Calm -- 30.18 in1022.0 mb - 0.00 in0.0 mm 0.01 in0.3 mm
05:10 PM 45.3°F7.4°C 39.5°F4.2°C 80% Calm Calm -- 30.19 in1022.4 mb - 0.00 in0.0 mm 0.01 in0.3 mm
05:20 PM 45.2°F7.3°C 39.4°F4.1°C 80% Calm Calm -- 30.19 in1022.4 mb - 0.00 in0.0 mm 0.01 in0.3 mm
05:40 PM 45.2°F7.3°C 39.4°F4.1°C 80% 1.1 mph N1.8 kmh N 3.5 mph5.6 kmh 30.21 in1023.0 mb - 0.00 in0.0 mm 0.01 in0.3 mm
05:50 PM 45.0°F7.2°C 38.9°F3.8°C 79% 5.8 mph N9.3 kmh N 6.9 mph11.1 kmh 30.21 in1023.0 mb - 0.00 in0.0 mm 0.01 in0.3 mm
06:00 PM 44.9°F7.2°C 38.1°F3.4°C 77% 2.3 mph N3.7 kmh N 3.5 mph5.6 kmh 30.21 in1023.0 mb - 0.00 in0.0 mm 0.01 in0.3 mm
06:10 PM 44.7°F7.1°C 38.6°F3.7°C 79% 1.1 mph N1.8 kmh N 2.3 mph3.7 kmh 30.22 in1023.4 mb - 0.00 in0.0 mm 0.01 in0.3 mm
06:20 PM 44.4°F6.9°C 38.6°F3.7°C 80% 3.5 mph N5.6 kmh N 3.5 mph5.6 kmh 30.22 in1023.4 mb - 0.00 in0.0 mm 0.01 in0.3 mm
06:30 PM 43.9°F6.6°C 38.1°F3.4°C 80% 2.3 mph N3.7 kmh N 3.5 mph5.6 kmh 30.23 in1023.7 mb - 0.00 in0.0 mm 0.01 in0.3 mm
06:40 PM 43.4°F6.3°C 37.9°F3.3°C 81% 3.5 mph N5.6 kmh N 4.6 mph7.4 kmh 30.23 in1023.7 mb - 0.00 in0.0 mm 0.01 in0.3 mm
06:50 PM 42.7°F5.9°C 37.6°F3.1°C 82% 3.5 mph N5.6 kmh N 4.6 mph7.4 kmh 30.24 in1024.0 mb - 0.00 in0.0 mm 0.01 in0.3 mm
07:00 PM 42.0°F5.6°C 37.2°F2.9°C 83% 2.3 mph N3.7 kmh N 3.5 mph5.6 kmh 30.25 in1024.4 mb - 0.00 in0.0 mm 0.01 in0.3 mm
07:10 PM 41.5°F5.3°C 37.1°F2.8°C 84% 2.3 mph N3.7 kmh N 3.5 mph5.6 kmh 30.25 in1024.4 mb - 0.00 in0.0 mm 0.01 in0.3 mm
07:20 PM 41.0°F5.0°C 36.8°F2.7°C 85% 4.6 mph N7.4 kmh N 5.8 mph9.3 kmh 30.26 in1024.7 mb - 0.00 in0.0 mm 0.01 in0.3 mm
07:30 PM 40.4°F4.7°C 36.5°F2.5°C 86% 3.5 mph NE5.6 kmh NE 6.9 mph11.1 kmh 30.26 in1024.7 mb - 0.00 in0.0 mm 0.01 in0.3 mm
07:40 PM 40.0°F4.4°C 36.2°F2.3°C 86% 1.1 mph NE1.8 kmh NE 4.6 mph7.4 kmh 30.27 in1025.1 mb - 0.00 in0.0 mm 0.01 in0.3 mm
07:50 PM 39.7°F4.3°C 36.1°F2.3°C 87% Calm Calm 2.3 mph3.7 kmh 30.27 in1025.1 mb - 0.00 in0.0 mm 0.01 in0.3 mm
08:00 PM 39.5°F4.2°C 36.0°F2.2°C 87% Calm Calm -- 30.28 in1025.4 mb - 0.00 in0.0 mm 0.01 in0.3 mm
08:10 PM 39.3°F4.1°C 35.8°F2.1°C 87% Calm Calm -- 30.27 in1025.1 mb - 0.00 in0.0 mm 0.01 in0.3 mm
08:20 PM 39.1°F3.9°C 35.8°F2.1°C 88% Calm Calm -- 30.28 in1025.4 mb - 0.00 in0.0 mm 0.01 in0.3 mm
08:30 PM 38.9°F3.8°C 35.7°F2.1°C 88% Calm Calm -- 30.28 in1025.4 mb - 0.00 in0.0 mm 0.01 in0.3 mm
08:40 PM 38.7°F3.7°C 35.5°F1.9°C 88% 1.1 mph NE1.8 kmh NE 3.5 mph5.6 kmh 30.28 in1025.4 mb - 0.00 in0.0 mm 0.01 in0.3 mm
08:50 PM 38.5°F3.6°C 35.3°F1.8°C 88% 2.3 mph NE3.7 kmh NE 3.5 mph5.6 kmh 30.28 in1025.4 mb - 0.00 in0.0 mm 0.01 in0.3 mm
09:00 PM 38.3°F3.5°C 35.1°F1.7°C 88% 1.1 mph NE1.8 kmh NE 2.3 mph3.7 kmh 30.29 in1025.7 mb - 0.00 in0.0 mm 0.01 in0.3 mm
09:10 PM 38.0°F3.3°C 34.8°F1.6°C 88% 2.3 mph NE3.7 kmh NE 4.6 mph7.4 kmh 30.29 in1025.7 mb - 0.00 in0.0 mm 0.01 in0.3 mm
09:20 PM 37.7°F3.2°C 34.7°F1.5°C 89% 3.5 mph NE5.6 kmh NE 3.5 mph5.6 kmh 30.29 in1025.7 mb - 0.00 in0.0 mm 0.01 in0.3 mm
09:30 PM 37.4°F3.0°C 34.5°F1.4°C 89% 1.1 mph NE1.8 kmh NE 2.3 mph3.7 kmh 30.29 in1025.7 mb - 0.00 in0.0 mm 0.01 in0.3 mm
09:40 PM 37.1°F2.8°C 34.2°F1.2°C 89% 1.1 mph NE1.8 kmh NE 2.3 mph3.7 kmh 30.29 in1025.7 mb - 0.00 in0.0 mm 0.01 in0.3 mm
09:50 PM 36.9°F2.7°C 34.0°F1.1°C 89% 1.1 mph NE1.8 kmh NE 1.1 mph1.8 kmh 30.30 in1026.1 mb - 0.00 in0.0 mm 0.01 in0.3 mm
10:00 PM 36.7°F2.6°C 33.8°F1.0°C 89% 1.1 mph NE1.8 kmh NE 2.3 mph3.7 kmh 30.30 in1026.1 mb - 0.00 in0.0 mm 0.01 in0.3 mm
10:10 PM 36.4°F2.4°C 33.7°F0.9°C 90% 1.1 mph NE1.8 kmh NE 2.3 mph3.7 kmh 30.30 in1026.1 mb - 0.00 in0.0 mm 0.01 in0.3 mm
10:20 PM 36.2°F2.3°C 33.6°F0.9°C 90% Calm Calm 1.1 mph1.8 kmh 30.30 in1026.1 mb - 0.00 in0.0 mm 0.01 in0.3 mm
10:30 PM 36.1°F2.3°C 33.4°F0.8°C 90% Calm Calm 1.1 mph1.8 kmh 30.31 in1026.4 mb - 0.00 in0.0 mm 0.01 in0.3 mm
10:40 PM 35.8°F2.1°C 33.2°F0.7°C 90% 1.1 mph NE1.8 kmh NE 2.3 mph3.7 kmh 30.31 in1026.4 mb - 0.00 in0.0 mm 0.01 in0.3 mm
10:50 PM 35.5°F1.9°C 32.9°F0.5°C 90% Calm Calm -- 30.32 in1026.8 mb - 0.00 in0.0 mm 0.01 in0.3 mm
11:00 PM 35.4°F1.9°C 33.0°F0.6°C 91% 1.1 mph NE1.8 kmh NE 3.5 mph5.6 kmh 30.32 in1026.8 mb - 0.00 in0.0 mm 0.01 in0.3 mm
11:10 PM 35.3°F1.8°C 32.9°F0.5°C 91% 2.3 mph NE3.7 kmh NE 3.5 mph5.6 kmh 30.32 in1026.8 mb - 0.00 in0.0 mm 0.01 in0.3 mm
11:20 PM 35.1°F1.7°C 32.7°F0.4°C 91% 4.6 mph NE7.4 kmh NE 4.6 mph7.4 kmh 30.33 in1027.1 mb - 0.00 in0.0 mm 0.01 in0.3 mm
11:30 PM 35.0°F1.7°C 32.9°F0.5°C 92% Calm Calm 1.1 mph1.8 kmh 30.34 in1027.4 mb - 0.00 in0.0 mm 0.01 in0.3 mm
11:40 PM 34.5°F1.4°C 32.4°F0.2°C 92% Calm Calm -- 30.34 in1027.4 mb - 0.00 in0.0 mm 0.01 in0.3 mm
11:50 PM 34.4°F1.3°C 32.3°F0.2°C 92% Calm Calm 2.3 mph3.7 kmh 30.35 in1027.8 mb - 0.00 in0.0 mm 0.01 in0.3 mm